createdAt,value
2023-04-02T00:02:23.275Z,12.52
2023-04-02T00:05:30.134Z,13.73
2023-04-02T00:08:18.194Z,12.00
2023-04-02T00:11:01.492Z,13.25
2023-04-02T00:13:46.799Z,14.07
2023-04-02T00:16:20.615Z,11.73
2023-04-02T00:18:53.370Z,16.35
2023-04-02T00:21:38.226Z,14.25
2023-04-02T00:24:19.866Z,10.90
2023-04-02T00:26:50.556Z,8.93
2023-04-02T00:29:19.394Z,12.32
2023-04-02T00:31:52.878Z,12.45
2023-04-02T00:34:26.307Z,17.25
2023-04-02T00:36:54.923Z,12.88
2023-04-02T00:39:29.815Z,9.40
2023-04-02T00:42:05.222Z,13.55
2023-04-02T00:44:45.873Z,11.68
2023-04-02T00:47:24.372Z,13.20
2023-04-02T00:50:05.509Z,11.82
2023-04-02T00:52:35.394Z,12.85
2023-04-02T00:55:15.637Z,12.50
2023-04-02T00:57:45.153Z,14.63
2023-04-02T01:00:29.275Z,12.55
2023-04-02T01:03:16.451Z,12.80
2023-04-02T01:05:50.306Z,12.10
2023-04-02T01:08:35.333Z,11.95
2023-04-02T01:11:23.368Z,9.38
2023-04-02T01:14:07.078Z,8.75
2023-04-02T01:16:46.588Z,10.50
2023-04-02T01:19:49.192Z,8.80
2023-04-02T01:22:22.589Z,10.25
2023-04-02T01:24:50.648Z,8.82
2023-04-02T01:27:28.676Z,11.48
2023-04-02T01:29:58.993Z,9.85
2023-04-02T01:32:30.015Z,11.95
2023-04-02T01:34:58.317Z,13.98
2023-04-02T01:37:56.043Z,11.07
2023-04-02T01:40:47.218Z,12.52
2023-04-02T01:43:27.075Z,16.67
2023-04-02T01:45:57.049Z,10.85
2023-04-02T01:48:30.068Z,9.57
2023-04-02T01:51:00.371Z,9.15
2023-04-02T01:53:30.830Z,11.18
2023-04-02T01:56:01.395Z,9.30
2023-04-02T01:58:32.331Z,11.35
2023-04-02T02:01:02.239Z,7.90
2023-04-02T02:03:31.661Z,9.02
2023-04-02T02:06:00.405Z,7.07
2023-04-02T02:08:38.916Z,15.15
2023-04-02T02:11:15.499Z,8.02
2023-04-02T02:13:48.378Z,12.32
2023-04-02T02:16:20.583Z,14.55
2023-04-02T02:18:52.615Z,11.85
2023-04-02T02:21:28.182Z,12.57
2023-04-02T02:23:56.295Z,10.05
2023-04-02T02:26:26.339Z,11.43
2023-04-02T02:28:57.598Z,13.85
2023-04-02T02:31:33.436Z,12.07
2023-04-02T02:34:16.494Z,12.60
2023-04-02T02:36:51.650Z,14.60
2023-04-02T02:39:51.551Z,10.95
2023-04-02T02:42:24.899Z,9.40
2023-04-02T02:44:56.482Z,10.45
2023-04-02T02:47:29.207Z,9.55
2023-04-02T02:50:03.484Z,13.23
2023-04-02T02:52:34.984Z,11.15
2023-04-02T02:55:15.944Z,13.18
2023-04-02T02:57:57.369Z,10.32
2023-04-02T03:00:28.368Z,12.73
2023-04-02T03:02:59.459Z,14.60
2023-04-02T03:05:31.948Z,9.77
2023-04-02T03:10:43.044Z,13.15
2023-04-02T03:13:19.817Z,9.43
2023-04-02T03:16:11.671Z,10.18
2023-04-02T03:18:57.557Z,10.48
2023-04-02T03:21:34.066Z,9.60
2023-04-02T03:24:08.538Z,15.05
2023-04-02T03:26:45.192Z,13.20
2023-04-02T03:29:27.358Z,11.68
2023-04-02T03:32:00.578Z,12.65
2023-04-02T03:35:00.278Z,9.07
2023-04-02T03:37:34.889Z,7.68
2023-04-02T03:40:09.874Z,9.30
2023-04-02T03:42:58.376Z,8.45
2023-04-02T03:45:36.689Z,8.70
2023-04-02T03:48:32.463Z,9.13
2023-04-02T03:51:16.743Z,8.90
2023-04-02T03:53:45.843Z,8.27
2023-04-02T03:56:39.688Z,7.93
2023-04-02T03:59:24.864Z,8.02
2023-04-02T04:01:56.310Z,8.57
2023-04-02T04:04:28.901Z,8.50
2023-04-02T04:06:58.591Z,7.25
2023-04-02T04:09:37.675Z,6.53
2023-04-02T04:12:27.804Z,6.55
2023-04-02T04:15:14.360Z,4.32
2023-04-02T04:18:19.489Z,6.95
2023-04-02T04:23:32.154Z,5.70
2023-04-02T04:26:34.902Z,4.63
2023-04-02T04:29:45.718Z,6.45
2023-04-02T04:32:39.283Z,5.85
2023-04-02T04:35:23.785Z,7.75
2023-04-02T04:37:58.844Z,7.22
2023-04-02T04:40:31.529Z,8.60
2023-04-02T04:43:12.262Z,4.32
2023-04-02T04:45:50.553Z,9.90
2023-04-02T04:48:21.958Z,4.97
2023-04-02T04:51:17.503Z,4.95
2023-04-02T04:53:52.516Z,6.45
2023-04-02T04:56:26.518Z,5.75
2023-04-02T04:59:11.876Z,6.70
2023-04-02T05:01:50.566Z,5.75
2023-04-02T05:04:29.050Z,4.25
2023-04-02T05:07:13.251Z,5.50
2023-04-02T05:10:03.469Z,5.07
2023-04-02T05:12:43.715Z,7.10
2023-04-02T05:16:01.325Z,6.75
2023-04-02T05:18:49.087Z,6.72
2023-04-02T05:21:20.622Z,4.68
2023-04-02T05:23:59.335Z,6.95
2023-04-02T05:26:39.561Z,6.07
2023-04-02T05:29:17.297Z,3.95
2023-04-02T05:32:03.919Z,5.97
2023-04-02T05:34:39.955Z,5.47
2023-04-02T05:37:19.812Z,6.78
2023-04-02T05:39:53.810Z,4.93
2023-04-02T05:42:29.405Z,4.47
2023-04-02T05:45:23.167Z,5.17
2023-04-02T05:47:59.860Z,4.95
2023-04-02T05:50:43.264Z,4.30
2023-04-02T05:53:32.090Z,4.85
2023-04-02T05:56:20.259Z,3.20
2023-04-02T05:58:55.897Z,6.57
2023-04-02T06:01:40.888Z,5.33
2023-04-02T06:04:36.645Z,8.68
2023-04-02T06:07:32.119Z,6.43
2023-04-02T06:10:11.530Z,7.70
2023-04-02T06:12:51.490Z,2.97
2023-04-02T06:15:23.146Z,6.77
2023-04-02T06:18:08.924Z,6.35
2023-04-02T06:20:38.229Z,8.03
2023-04-02T06:23:32.123Z,5.37
2023-04-02T06:26:09.997Z,4.07
2023-04-02T06:28:51.111Z,4.90
2023-04-02T06:31:26.342Z,6.23
2023-04-02T06:33:56.433Z,7.57
2023-04-02T06:36:28.459Z,6.57
2023-04-02T06:39:08.571Z,6.47
2023-04-02T06:41:37.255Z,8.60
2023-04-02T06:44:28.100Z,4.53
2023-04-02T06:47:31.103Z,12.48
2023-04-02T06:50:04.814Z,5.90
2023-04-02T06:52:47.469Z,5.50
2023-04-02T06:55:37.386Z,4.65
2023-04-02T06:58:05.878Z,5.70
2023-04-02T07:00:43.340Z,4.60
2023-04-02T07:03:30.960Z,3.00
2023-04-02T07:06:03.634Z,6.70
2023-04-02T07:08:32.910Z,5.40
2023-04-02T07:11:01.662Z,7.45
2023-04-02T07:13:30.182Z,2.97
2023-04-02T07:15:58.581Z,4.32
2023-04-02T07:18:29.816Z,3.97
2023-04-02T07:20:58.695Z,3.50
2023-04-02T07:23:27.184Z,7.37
2023-04-02T07:25:56.730Z,5.17
2023-04-02T07:28:25.258Z,4.65
2023-04-02T07:30:54.811Z,7.60
2023-04-02T07:33:25.986Z,5.40
2023-04-02T07:35:55.401Z,6.43
2023-04-02T07:38:23.554Z,5.28
2023-04-02T07:40:51.454Z,3.63
2023-04-02T07:43:19.269Z,5.43
2023-04-02T07:45:47.058Z,5.30
2023-04-02T07:48:15.406Z,4.60
2023-04-02T07:50:43.424Z,5.37
2023-04-02T07:53:37.781Z,6.55
2023-04-02T07:56:07.306Z,4.18
2023-04-02T07:58:35.634Z,4.45
2023-04-02T08:01:04.436Z,9.87
2023-04-02T08:03:32.913Z,4.50
2023-04-02T08:06:00.856Z,2.97
2023-04-02T08:08:28.664Z,6.38
2023-04-02T08:10:57.665Z,3.33
2023-04-02T08:13:25.457Z,5.00
2023-04-02T08:15:54.016Z,2.07
2023-04-02T08:18:26.140Z,4.63
2023-04-02T08:20:55.066Z,3.83
2023-04-02T08:23:23.301Z,4.63
2023-04-02T08:25:51.467Z,5.60
2023-04-02T08:28:19.765Z,3.63
2023-04-02T08:30:49.160Z,4.63
2023-04-02T08:33:18.131Z,4.78
2023-04-02T08:35:47.668Z,4.47
2023-04-02T08:38:21.547Z,3.67
2023-04-02T08:40:51.710Z,3.17
2023-04-02T08:43:28.941Z,4.93
2023-04-02T08:46:24.341Z,2.88
2023-04-02T08:48:57.426Z,4.97
2023-04-02T08:51:28.174Z,2.88
2023-04-02T08:54:01.411Z,3.80
2023-04-02T08:56:32.324Z,4.68
2023-04-02T08:59:07.527Z,5.65
2023-04-02T09:01:54.325Z,2.45
2023-04-02T09:04:25.232Z,4.50
2023-04-02T09:06:57.225Z,4.40
2023-04-02T09:09:26.145Z,5.68
2023-04-02T09:12:01.096Z,2.58
2023-04-02T09:14:44.215Z,4.78
2023-04-02T09:17:26.808Z,2.97
2023-04-02T09:20:19.288Z,1.80
2023-04-02T09:22:53.534Z,7.65
2023-04-02T09:25:26.962Z,4.65
2023-04-02T09:27:57.459Z,2.97
2023-04-02T09:30:47.391Z,3.03
2023-04-02T09:33:15.667Z,3.90
2023-04-02T09:35:56.457Z,4.63
2023-04-02T09:38:32.943Z,3.80
2023-04-02T09:41:04.120Z,2.80
2023-04-02T09:43:33.047Z,2.38
2023-04-02T09:46:05.829Z,3.80
2023-04-02T09:48:54.129Z,3.42
2023-04-02T09:51:24.484Z,5.18
2023-04-02T09:54:16.598Z,2.95
2023-04-02T09:57:03.991Z,5.50
2023-04-02T09:59:32.221Z,3.05
2023-04-02T10:02:03.315Z,3.95
2023-04-02T10:04:44.812Z,3.58
2023-04-02T10:07:34.750Z,4.28
2023-04-02T10:10:19.468Z,2.63
2023-04-02T10:12:53.943Z,5.60
2023-04-02T10:15:28.169Z,2.63
2023-04-02T10:18:07.961Z,4.22
2023-04-02T10:20:50.391Z,2.80
2023-04-02T10:23:30.976Z,3.28
2023-04-02T10:26:39.671Z,2.65
2023-04-02T10:29:32.548Z,6.40
2023-04-02T10:32:21.285Z,2.60
2023-04-02T10:35:03.107Z,4.25
2023-04-02T10:37:52.117Z,4.82
2023-04-02T10:40:28.379Z,1.75
2023-04-02T10:43:20.029Z,2.25
2023-04-02T10:46:02.256Z,6.70
2023-04-02T10:49:16.865Z,4.82
2023-04-02T10:51:53.633Z,2.15
2023-04-02T10:54:41.619Z,3.33
2023-04-02T10:57:16.680Z,5.80
2023-04-02T11:02:56.820Z,3.47
2023-04-02T11:05:43.398Z,2.42
2023-04-02T11:08:43.837Z,4.93
2023-04-02T11:11:19.295Z,3.05
2023-04-02T11:14:12.966Z,1.85
2023-04-02T11:16:44.245Z,4.30
2023-04-02T11:19:18.203Z,6.88
2023-04-02T11:22:39.616Z,5.55
2023-04-02T11:25:22.646Z,4.32
2023-04-02T11:27:50.502Z,3.17
2023-04-02T11:30:26.269Z,8.75
2023-04-02T11:32:55.088Z,4.88
2023-04-02T11:35:30.921Z,2.85
2023-04-02T11:38:19.458Z,5.35
2023-04-02T11:40:48.788Z,6.70
2023-04-02T11:43:35.349Z,2.70
2023-04-02T11:46:03.225Z,2.03
2023-04-02T11:48:35.837Z,4.55
2023-04-02T11:51:32.983Z,3.63
2023-04-02T11:54:01.239Z,2.30
2023-04-02T11:56:29.001Z,4.93
2023-04-02T11:59:20.553Z,4.88
2023-04-02T12:02:13.085Z,3.70
2023-04-02T12:04:53.069Z,4.07
2023-04-02T12:07:34.941Z,2.22
2023-04-02T12:10:16.523Z,3.67
2023-04-02T12:12:44.948Z,3.90
2023-04-02T12:15:41.601Z,3.40
2023-04-02T12:18:23.494Z,3.35
2023-04-02T12:20:57.108Z,4.80
2023-04-02T12:23:32.503Z,3.03
2023-04-02T12:26:08.765Z,3.92
2023-04-02T12:28:38.107Z,2.30
2023-04-02T12:31:09.137Z,3.95
2023-04-02T12:33:41.322Z,3.80
2023-04-02T12:36:22.257Z,4.05
2023-04-02T12:38:53.740Z,4.10
2023-04-02T12:41:27.039Z,4.00
2023-04-02T12:44:06.841Z,5.03
2023-04-02T12:46:36.063Z,3.03
2023-04-02T12:49:21.843Z,4.30
2023-04-02T12:51:51.490Z,3.47
2023-04-02T12:54:20.696Z,6.75
2023-04-02T12:56:50.527Z,4.90
2023-04-02T12:59:36.376Z,2.38
2023-04-02T13:02:21.169Z,2.70
2023-04-02T13:04:51.598Z,4.25
2023-04-02T13:07:22.633Z,4.80
2023-04-02T13:09:53.524Z,4.47
2023-04-02T13:12:25.955Z,5.25
2023-04-02T13:14:57.049Z,2.92
2023-04-02T13:17:38.527Z,1.95
2023-04-02T13:20:36.174Z,4.47
2023-04-02T13:23:24.225Z,2.65
2023-04-02T13:25:53.106Z,5.88
2023-04-02T13:28:21.940Z,3.13
2023-04-02T13:30:50.257Z,2.13
2023-04-02T13:33:18.270Z,4.35
2023-04-02T13:35:46.662Z,4.07
2023-04-02T13:38:14.908Z,7.82
2023-04-02T13:40:44.218Z,4.88
2023-04-02T13:43:18.732Z,2.72
2023-04-02T13:45:51.620Z,3.17
2023-04-02T13:48:20.027Z,5.43
2023-04-02T13:50:48.134Z,1.63
2023-04-02T13:53:24.121Z,3.70
2023-04-02T13:55:52.672Z,2.75
2023-04-02T13:58:20.666Z,3.10
2023-04-02T14:00:49.051Z,2.75
2023-04-02T14:03:22.009Z,1.60
2023-04-02T14:06:07.097Z,2.63
2023-04-02T14:08:56.741Z,2.28
2023-04-02T14:11:43.414Z,5.13
2023-04-02T14:14:19.904Z,2.63
2023-04-02T14:17:15.862Z,2.55
2023-04-02T14:23:01.082Z,2.95
2023-04-02T14:26:01.844Z,2.00
2023-04-02T14:28:42.912Z,3.25
2023-04-02T14:31:28.835Z,2.33
2023-04-02T14:34:02.736Z,4.47
2023-04-02T14:36:56.240Z,3.15
2023-04-02T14:39:37.224Z,2.38
2023-04-02T14:42:16.618Z,3.08
2023-04-02T14:45:16.749Z,1.58
2023-04-02T14:47:54.438Z,4.07
2023-04-02T14:50:30.044Z,6.85
2023-04-02T14:53:04.022Z,2.83
2023-04-02T14:55:42.524Z,2.87
2023-04-02T14:58:25.849Z,4.30
2023-04-02T15:01:03.106Z,1.92
2023-04-02T15:03:43.395Z,3.35
2023-04-02T15:06:22.530Z,4.63
2023-04-02T15:09:09.521Z,4.18
2023-04-02T15:11:49.493Z,2.67
2023-04-02T15:14:23.761Z,3.47
2023-04-02T15:16:51.851Z,3.08
2023-04-02T15:19:20.308Z,4.75
2023-04-02T15:22:09.124Z,7.05
2023-04-02T15:24:43.347Z,1.65
2023-04-02T15:27:29.495Z,2.20
2023-04-02T15:30:03.045Z,2.70
2023-04-02T15:32:34.297Z,4.57
2023-04-02T15:35:32.277Z,4.50
2023-04-02T15:38:02.988Z,5.35
2023-04-02T15:40:55.116Z,4.63
2023-04-02T15:43:31.610Z,4.38
2023-04-02T15:46:20.300Z,3.25
2023-04-02T15:49:00.646Z,3.65
2023-04-02T15:51:50.252Z,6.90
2023-04-02T15:54:58.651Z,3.47
2023-04-02T15:57:51.037Z,4.63
2023-04-02T16:00:23.798Z,1.35
2023-04-02T16:02:52.468Z,2.65
2023-04-02T16:05:53.599Z,2.75
2023-04-02T16:08:42.183Z,3.50
2023-04-02T16:11:15.084Z,2.50
2023-04-02T16:13:43.802Z,4.07
2023-04-02T16:16:27.038Z,2.90
2023-04-02T16:19:32.905Z,6.30
2023-04-02T16:22:09.132Z,6.57
2023-04-02T16:24:38.986Z,3.55
2023-04-02T16:27:07.732Z,6.10
2023-04-02T16:29:59.053Z,3.15
2023-04-02T16:33:01.520Z,3.08
2023-04-02T16:35:59.856Z,3.03
2023-04-02T16:38:36.425Z,3.05
2023-04-02T16:41:17.659Z,4.50
2023-04-02T16:44:19.010Z,2.75
2023-04-02T16:47:04.270Z,4.82
2023-04-02T16:52:40.348Z,2.55
2023-04-02T16:55:23.368Z,2.88
2023-04-02T16:58:07.540Z,3.63
2023-04-02T17:00:56.641Z,2.35
2023-04-02T17:03:43.250Z,3.75
2023-04-02T17:06:14.224Z,4.25
2023-04-02T17:08:59.434Z,4.95
2023-04-02T17:12:01.540Z,2.28
2023-04-02T17:14:44.136Z,4.07
2023-04-02T17:17:14.773Z,4.03
2023-04-02T17:19:44.648Z,4.40
2023-04-02T17:22:21.193Z,3.88
2023-04-02T17:24:59.963Z,5.78
2023-04-02T17:27:33.618Z,5.80
2023-04-02T17:30:15.519Z,4.07
2023-04-02T17:32:43.650Z,1.55
2023-04-02T17:35:18.386Z,3.28
2023-04-02T17:37:52.765Z,3.53
2023-04-02T17:40:36.762Z,5.15
2023-04-02T17:43:32.810Z,5.88
2023-04-02T17:46:18.099Z,4.15
2023-04-02T17:48:48.395Z,4.75
2023-04-02T17:51:30.509Z,5.32
2023-04-02T17:54:12.359Z,4.40
2023-04-02T17:56:58.289Z,4.43
2023-04-02T17:59:41.920Z,6.70
2023-04-02T18:02:26.828Z,4.30
2023-04-02T18:05:20.535Z,5.47
2023-04-02T18:08:25.617Z,3.17
2023-04-02T18:11:05.018Z,5.65
2023-04-02T18:13:39.844Z,14.52
2023-04-02T18:16:26.741Z,8.05
2023-04-02T18:19:06.004Z,4.05
2023-04-02T18:21:58.514Z,14.73
2023-04-02T18:24:46.627Z,5.35
2023-04-02T18:27:26.139Z,12.27
2023-04-02T18:30:20.588Z,6.80
2023-04-02T18:33:30.857Z,5.50
2023-04-02T18:36:16.047Z,5.63
2023-04-02T18:39:06.664Z,6.95
2023-04-02T18:42:16.813Z,6.75
2023-04-02T18:45:23.131Z,4.90
2023-04-02T18:48:28.949Z,4.03
2023-04-02T18:51:00.499Z,5.68
2023-04-02T18:53:31.455Z,4.20
2023-04-02T18:56:14.174Z,16.60
2023-04-02T18:59:14.605Z,5.38
2023-04-02T19:01:48.742Z,8.10
2023-04-02T19:04:34.804Z,7.50
2023-04-02T19:07:14.445Z,8.25
2023-04-02T19:09:47.585Z,7.38
2023-04-02T19:12:23.532Z,10.73
2023-04-02T19:14:52.532Z,10.45
2023-04-02T19:17:46.038Z,7.88
2023-04-02T19:20:50.849Z,9.45
2023-04-02T19:23:34.267Z,8.32
2023-04-02T19:26:21.990Z,17.73
2023-04-02T19:29:21.488Z,7.97
2023-04-02T19:32:13.542Z,8.18
2023-04-02T19:34:49.129Z,9.50
2023-04-02T19:37:32.079Z,37.40
2023-04-02T19:40:28.916Z,21.65
2023-04-02T19:42:58.201Z,9.23
2023-04-02T19:45:44.239Z,73.85
2023-04-02T19:48:17.261Z,93.90
2023-04-02T19:50:46.480Z,30.65
2023-04-02T19:53:16.132Z,13.95
2023-04-02T19:55:45.447Z,8.27
2023-04-02T19:58:25.713Z,6.38
2023-04-02T20:00:54.008Z,13.80
2023-04-02T20:03:22.312Z,11.52
2023-04-02T20:05:50.469Z,13.73
2023-04-02T20:08:18.736Z,14.45
2023-04-02T20:10:47.028Z,5.95
2023-04-02T20:13:16.206Z,9.32
2023-04-02T20:15:47.214Z,7.53
2023-04-02T20:18:15.592Z,18.70
2023-04-02T20:20:46.848Z,8.75
2023-04-02T20:23:17.087Z,6.53
2023-04-02T20:25:55.101Z,13.45
2023-04-02T20:28:24.567Z,21.60
2023-04-02T20:30:53.062Z,19.77
2023-04-02T20:33:24.088Z,5.90
2023-04-02T20:35:52.903Z,6.45
2023-04-02T20:38:20.853Z,3.85
2023-04-02T20:40:52.991Z,5.00
2023-04-02T20:43:21.649Z,6.95
2023-04-02T20:46:01.247Z,6.82
2023-04-02T20:48:30.862Z,3.97
2023-04-02T20:51:00.286Z,7.07
2023-04-02T20:53:32.796Z,4.13
2023-04-02T20:56:10.156Z,5.15
2023-04-02T20:58:39.716Z,9.60
2023-04-02T21:01:12.846Z,7.20
2023-04-02T21:03:40.964Z,15.05
2023-04-02T21:06:22.563Z,11.52
2023-04-02T21:08:51.745Z,5.43
2023-04-02T21:11:21.841Z,3.17
2023-04-02T21:13:50.471Z,6.50
2023-04-02T21:16:22.533Z,5.18
2023-04-02T21:18:52.817Z,6.30
2023-04-02T21:21:21.998Z,3.80
2023-04-02T21:23:55.907Z,4.55
2023-04-02T21:26:24.025Z,6.10
2023-04-02T21:28:52.158Z,3.92
2023-04-02T21:31:27.802Z,2.45
2023-04-02T21:33:58.158Z,5.43
2023-04-02T21:36:29.262Z,3.80
2023-04-02T21:38:59.758Z,4.10
2023-04-02T21:41:30.837Z,3.42
2023-04-02T21:44:01.997Z,2.67
2023-04-02T21:46:33.787Z,2.97
2023-04-02T21:49:02.387Z,3.40
2023-04-02T21:51:33.507Z,4.00
2023-04-02T21:54:02.326Z,4.10
2023-04-02T21:56:33.028Z,3.90
2023-04-02T21:59:03.741Z,5.82
2023-04-02T22:01:34.279Z,2.75
2023-04-02T22:04:05.064Z,3.95
2023-04-02T22:06:39.549Z,18.58
2023-04-02T22:09:13.769Z,12.98
2023-04-02T22:11:44.978Z,4.70
2023-04-02T22:14:13.448Z,40.95
2023-04-02T22:16:42.136Z,30.45
2023-04-02T22:19:12.569Z,17.05
2023-04-02T22:21:40.754Z,13.35
2023-04-02T22:24:12.400Z,25.48
2023-04-02T22:26:40.675Z,20.83
2023-04-02T22:29:08.706Z,31.90
2023-04-02T22:31:36.820Z,11.82
2023-04-02T22:34:06.609Z,8.65
2023-04-02T22:36:35.755Z,6.20
2023-04-02T22:39:06.814Z,4.88
2023-04-02T22:41:35.497Z,5.38
2023-04-02T22:44:03.454Z,5.15
2023-04-02T22:46:31.603Z,6.18
2023-04-02T22:48:59.570Z,4.93
2023-04-02T22:51:28.041Z,3.63
2023-04-02T22:53:56.919Z,4.90
2023-04-02T22:56:32.157Z,3.42
2023-04-02T22:59:00.718Z,4.70
2023-04-02T23:01:32.455Z,3.80
2023-04-02T23:04:00.591Z,3.88
2023-04-02T23:06:29.216Z,3.25
2023-04-02T23:08:58.307Z,4.93
2023-04-02T23:11:28.069Z,3.15
2023-04-02T23:13:58.121Z,3.88
2023-04-02T23:16:28.484Z,5.90
2023-04-02T23:18:57.128Z,4.35
2023-04-02T23:21:26.257Z,3.63
2023-04-02T23:23:54.547Z,2.33
2023-04-02T23:26:31.320Z,3.80
2023-04-02T23:29:00.725Z,2.70
2023-04-02T23:31:28.862Z,2.95
2023-04-02T23:33:56.729Z,3.53
2023-04-02T23:36:27.296Z,1.63
2023-04-02T23:38:57.450Z,2.75
2023-04-02T23:41:27.207Z,3.45
2023-04-02T23:43:58.499Z,3.73
2023-04-02T23:46:26.695Z,3.35
2023-04-02T23:48:55.149Z,3.38
2023-04-02T23:51:23.948Z,2.13
2023-04-02T23:53:53.584Z,3.60
2023-04-02T23:56:22.252Z,3.88
2023-04-02T23:58:51.131Z,10.82
